Skip Navigation Links
NOAA logo - Click to go to the NOAA homepage
NOAA's National Weather Service
Alaska Aviation Weather Unit
  NWS logo - Click to go to the NWS homepage
Left Navbar Graphic     08 AKDT = 16 GMT

   
NOAA is celebrating 200 years of science, service, and stewardship. Visit the NOAA 200th celebration Web site to learn more.
USA.gov is the U.S. Government's official Web portal to all Federal, state and local government Web resources and services.
Facebook
NWS on Facebook

Important Change Regarding the AAWU Web Presence

 

Over the last several months, the AAWU has been working to navigate its webpages to a nationally supported server. Security, as well as other needs, have necessitated the change.  In the process, we have made an effort to enhance the functionality of our website, as well as some of our products. As of June 20, 2017, aawu.arh.noaa.gov will be discontinued. The new AAWU web address is weather.gov/aawu. It is now live and will run in-parallel with the old site until it is discontinued. Please send any feedback or questions regarding the new webpages to nws.ar.aawu.webauthors@noaa.gov.  Thank you for your patience during this time of transition.
AAWU Home :: Display TAF Add Bookmark
TAF PAGK 231138Z 2312/2412 17011KT P6SM BKN080=

METAR PAGK 231053Z AUTO 00000KT 10SM OVC080 01/M02 A2992 RMK AO2 SLP144 T00061022 TSNO $= METAR PAGK 231153Z AUTO 28004KT 10SM BKN080 00/M02 A2992 RMK AO2 SLP147 T00001022 10089 20000 51005 TSNO $= METAR PAGK 231253Z AUTO 00000KT 10SM BKN049 OVC065 01/M02 A2993 RMK AO2 SLP148 T00061017 TSNO $= METAR PAGK 231353Z AUTO 00000KT 10SM BKN065 BKN085 03/01 A2993 RMK AO2 SLP146 T00280006 TSNO $= METAR PAGK 231453Z AUTO 20003KT 10SM FEW080 04/01 A2994 RMK AO2 SLP147 T00440011 53004 TSNO= METAR PAGK 231553Z AUTO 15003KT 10SM CLR 05/01 A2993 RMK AO2 SLP145 T00500011 TSNO $=
 Alaska TAF Map

NOAA's National Weather Service
Alaska Aviation Weather Unit
6930 Sand Lake Road
Anchorage, AK 99502-1845
Disclaimer
Credits
Glossary
Privacy Policy
About Us
Career Opportunities
Contact AAWU Internet Services Site last modified: April, 17th 2012